sensor_id;sensor_type;location;lat;lon;timestamp;temperature;humidity
42615;DHT22;28754;47.700;7.924;2022-12-07T00:00:26;3.70;99.90
42615;DHT22;28754;47.700;7.924;2022-12-07T00:03:13;3.60;99.90
42615;DHT22;28754;47.700;7.924;2022-12-07T00:06:00;3.60;99.90
42615;DHT22;28754;47.700;7.924;2022-12-07T00:08:48;3.50;99.90
42615;DHT22;28754;47.700;7.924;2022-12-07T00:11:34;3.50;99.90
42615;DHT22;28754;47.700;7.924;2022-12-07T00:14:21;3.80;99.90
42615;DHT22;28754;47.700;7.924;2022-12-07T00:17:08;3.80;99.90
42615;DHT22;28754;47.700;7.924;2022-12-07T00:19:55;3.60;99.90
42615;DHT22;28754;47.700;7.924;2022-12-07T00:22:41;3.50;99.90
42615;DHT22;28754;47.700;7.924;2022-12-07T00:25:29;3.50;99.90
42615;DHT22;28754;47.700;7.924;2022-12-07T00:28:16;3.30;99.90
42615;DHT22;28754;47.700;7.924;2022-12-07T00:31:05;3.20;99.90
42615;DHT22;28754;47.700;7.924;2022-12-07T00:33:54;3.30;99.90
42615;DHT22;28754;47.700;7.924;2022-12-07T00:36:40;3.10;99.90
42615;DHT22;28754;47.700;7.924;2022-12-07T00:39:27;2.90;99.90
42615;DHT22;28754;47.700;7.924;2022-12-07T00:42:14;2.80;99.90
42615;DHT22;28754;47.700;7.924;2022-12-07T00:45:00;2.80;99.90
42615;DHT22;28754;47.700;7.924;2022-12-07T00:47:47;2.90;99.90
42615;DHT22;28754;47.700;7.924;2022-12-07T00:50:34;3.10;99.90
42615;DHT22;28754;47.700;7.924;2022-12-07T00:53:20;3.20;99.90
42615;DHT22;28754;47.700;7.924;2022-12-07T00:56:10;3.30;99.90
42615;DHT22;28754;47.700;7.924;2022-12-07T00:59:01;3.20;99.90
42615;DHT22;28754;47.700;7.924;2022-12-07T01:01:49;3.10;99.90
42615;DHT22;28754;47.700;7.924;2022-12-07T01:04:36;2.90;99.90
42615;DHT22;28754;47.700;7.924;2022-12-07T01:07:23;2.90;99.90
42615;DHT22;28754;47.700;7.924;2022-12-07T01:10:10;2.80;99.90
42615;DHT22;28754;47.700;7.924;2022-12-07T01:12:57;2.80;99.90
42615;DHT22;28754;47.700;7.924;2022-12-07T01:15:45;2.80;99.90
42615;DHT22;28754;47.700;7.924;2022-12-07T01:18:33;2.60;99.90
42615;DHT22;28754;47.700;7.924;2022-12-07T01:21:26;2.60;99.90
42615;DHT22;28754;47.700;7.924;2022-12-07T01:24:15;2.50;99.90
42615;DHT22;28754;47.700;7.924;2022-12-07T01:27:02;2.60;99.90
42615;DHT22;28754;47.700;7.924;2022-12-07T01:29:49;2.80;99.90
42615;DHT22;28754;47.700;7.924;2022-12-07T01:32:37;3.10;99.90
42615;DHT22;28754;47.700;7.924;2022-12-07T01:35:23;3.20;99.90
42615;DHT22;28754;47.700;7.924;2022-12-07T01:38:10;3.30;99.90
42615;DHT22;28754;47.700;7.924;2022-12-07T01:40:57;3.30;99.90
42615;DHT22;28754;47.700;7.924;2022-12-07T01:47:04;3.20;99.90
42615;DHT22;28754;47.700;7.924;2022-12-07T01:49:50;2.80;99.90
42615;DHT22;28754;47.700;7.924;2022-12-07T01:55:18;2.60;99.90
42615;DHT22;28754;47.700;7.924;2022-12-07T01:58:04;2.70;99.90
42615;DHT22;28754;47.700;7.924;2022-12-07T02:00:52;2.90;99.90
42615;DHT22;28754;47.700;7.924;2022-12-07T02:03:41;2.70;99.90
42615;DHT22;28754;47.700;7.924;2022-12-07T02:06:30;2.50;99.90
42615;DHT22;28754;47.700;7.924;2022-12-07T02:09:17;2.40;99.90
42615;DHT22;28754;47.700;7.924;2022-12-07T02:12:04;2.30;99.90
42615;DHT22;28754;47.700;7.924;2022-12-07T02:14:51;2.20;99.90
42615;DHT22;28754;47.700;7.924;2022-12-07T02:17:53;2.20;99.90
42615;DHT22;28754;47.700;7.924;2022-12-07T02:27:52;2.20;99.90
42615;DHT22;28754;47.700;7.924;2022-12-07T02:30:50;2.20;99.90
42615;DHT22;28754;47.700;7.924;2022-12-07T02:33:45;2.20;99.90
42615;DHT22;28754;47.700;7.924;2022-12-07T02:36:46;2.20;99.90
42615;DHT22;28754;47.700;7.924;2022-12-07T02:39:46;2.10;99.90
42615;DHT22;28754;47.700;7.924;2022-12-07T02:42:48;2.00;99.90
42615;DHT22;28754;47.700;7.924;2022-12-07T02:45:40;1.90;99.90
42615;DHT22;28754;47.700;7.924;2022-12-07T02:48:28;2.00;99.90
42615;DHT22;28754;47.700;7.924;2022-12-07T02:51:18;1.90;99.90
42615;DHT22;28754;47.700;7.924;2022-12-07T02:54:12;2.00;99.90
42615;DHT22;28754;47.700;7.924;2022-12-07T03:00:59;1.80;99.90
42615;DHT22;28754;47.700;7.924;2022-12-07T03:14:25;2.30;99.90
42615;DHT22;28754;47.700;7.924;2022-12-07T03:17:26;2.30;99.90
42615;DHT22;28754;47.700;7.924;2022-12-07T03:20:19;2.20;99.90
42615;DHT22;28754;47.700;7.924;2022-12-07T03:23:10;2.20;99.90
42615;DHT22;28754;47.700;7.924;2022-12-07T03:26:00;2.30;99.90
42615;DHT22;28754;47.700;7.924;2022-12-07T03:28:52;2.40;99.90
42615;DHT22;28754;47.700;7.924;2022-12-07T03:31:47;2.70;99.90
42615;DHT22;28754;47.700;7.924;2022-12-07T03:34:57;2.80;99.90
42615;DHT22;28754;47.700;7.924;2022-12-07T03:38:04;2.90;99.90
42615;DHT22;28754;47.700;7.924;2022-12-07T03:41:16;2.90;99.90
42615;DHT22;28754;47.700;7.924;2022-12-07T03:44:07;2.90;99.90
42615;DHT22;28754;47.700;7.924;2022-12-07T03:47:18;2.80;99.90
42615;DHT22;28754;47.700;7.924;2022-12-07T03:50:18;2.80;99.90
42615;DHT22;28754;47.700;7.924;2022-12-07T03:56:25;2.70;99.90
42615;DHT22;28754;47.700;7.924;2022-12-07T03:59:16;2.50;99.90
42615;DHT22;28754;47.700;7.924;2022-12-07T04:02:06;2.40;99.90
42615;DHT22;28754;47.700;7.924;2022-12-07T04:04:54;2.40;99.90
42615;DHT22;28754;47.700;7.924;2022-12-07T04:07:42;2.60;99.90
42615;DHT22;28754;47.700;7.924;2022-12-07T04:10:28;2.50;99.90
42615;DHT22;28754;47.700;7.924;2022-12-07T04:13:15;2.60;99.90
42615;DHT22;28754;47.700;7.924;2022-12-07T04:16:02;2.60;99.90
42615;DHT22;28754;47.700;7.924;2022-12-07T04:18:49;2.60;99.90
42615;DHT22;28754;47.700;7.924;2022-12-07T04:21:35;2.50;99.90
42615;DHT22;28754;47.700;7.924;2022-12-07T04:24:22;2.50;99.90
42615;DHT22;28754;47.700;7.924;2022-12-07T04:27:09;2.50;99.90
42615;DHT22;28754;47.700;7.924;2022-12-07T04:29:56;2.40;99.90
42615;DHT22;28754;47.700;7.924;2022-12-07T04:32:43;2.40;99.90
42615;DHT22;28754;47.700;7.924;2022-12-07T04:35:29;2.40;99.90
42615;DHT22;28754;47.700;7.924;2022-12-07T04:38:16;2.60;99.90
42615;DHT22;28754;47.700;7.924;2022-12-07T04:41:07;2.50;99.90
42615;DHT22;28754;47.700;7.924;2022-12-07T04:43:55;2.80;99.90
42615;DHT22;28754;47.700;7.924;2022-12-07T04:46:43;2.80;99.90
42615;DHT22;28754;47.700;7.924;2022-12-07T04:49:30;3.00;99.90
42615;DHT22;28754;47.700;7.924;2022-12-07T04:52:17;2.90;99.90
42615;DHT22;28754;47.700;7.924;2022-12-07T04:55:04;2.80;99.90
42615;DHT22;28754;47.700;7.924;2022-12-07T04:57:51;2.80;99.90
42615;DHT22;28754;47.700;7.924;2022-12-07T05:00:40;2.50;99.90
42615;DHT22;28754;47.700;7.924;2022-12-07T05:03:30;2.60;99.90
42615;DHT22;28754;47.700;7.924;2022-12-07T05:06:17;2.70;99.90
42615;DHT22;28754;47.700;7.924;2022-12-07T05:09:04;2.90;99.90
42615;DHT22;28754;47.700;7.924;2022-12-07T05:11:51;2.90;99.90
42615;DHT22;28754;47.700;7.924;2022-12-07T05:14:38;3.00;99.90
42615;DHT22;28754;47.700;7.924;2022-12-07T05:17:24;3.00;99.90
42615;DHT22;28754;47.700;7.924;2022-12-07T05:20:11;3.00;99.90
42615;DHT22;28754;47.700;7.924;2022-12-07T05:22:58;3.00;99.90
42615;DHT22;28754;47.700;7.924;2022-12-07T05:25:46;2.90;99.90
42615;DHT22;28754;47.700;7.924;2022-12-07T05:28:32;3.00;99.90
42615;DHT22;28754;47.700;7.924;2022-12-07T05:31:19;2.90;99.90
42615;DHT22;28754;47.700;7.924;2022-12-07T05:34:06;2.60;99.90
42615;DHT22;28754;47.700;7.924;2022-12-07T05:36:53;2.50;99.90
42615;DHT22;28754;47.700;7.924;2022-12-07T05:39:40;2.50;99.90
42615;DHT22;28754;47.700;7.924;2022-12-07T05:42:29;2.50;99.90
42615;DHT22;28754;47.700;7.924;2022-12-07T05:45:15;2.40;99.90
42615;DHT22;28754;47.700;7.924;2022-12-07T05:48:02;2.50;99.90
42615;DHT22;28754;47.700;7.924;2022-12-07T05:50:50;2.40;99.90
42615;DHT22;28754;47.700;7.924;2022-12-07T05:53:37;2.60;99.90
42615;DHT22;28754;47.700;7.924;2022-12-07T05:56:24;2.70;99.90
42615;DHT22;28754;47.700;7.924;2022-12-07T05:59:11;2.70;99.90
42615;DHT22;28754;47.700;7.924;2022-12-07T06:02:13;2.80;99.90
42615;DHT22;28754;47.700;7.924;2022-12-07T06:05:01;2.90;99.90
42615;DHT22;28754;47.700;7.924;2022-12-07T06:07:47;2.90;99.90
42615;DHT22;28754;47.700;7.924;2022-12-07T06:10:34;3.00;99.90
42615;DHT22;28754;47.700;7.924;2022-12-07T06:13:21;3.00;99.90
42615;DHT22;28754;47.700;7.924;2022-12-07T06:16:07;3.00;99.90
42615;DHT22;28754;47.700;7.924;2022-12-07T06:18:54;3.00;99.90
42615;DHT22;28754;47.700;7.924;2022-12-07T06:21:41;2.80;99.90
42615;DHT22;28754;47.700;7.924;2022-12-07T06:24:28;2.70;99.90
42615;DHT22;28754;47.700;7.924;2022-12-07T06:27:15;2.80;99.90
42615;DHT22;28754;47.700;7.924;2022-12-07T06:30:02;2.80;99.90
42615;DHT22;28754;47.700;7.924;2022-12-07T06:32:52;2.70;99.90
42615;DHT22;28754;47.700;7.924;2022-12-07T06:35:39;2.40;99.90
42615;DHT22;28754;47.700;7.924;2022-12-07T06:38:25;2.00;99.90
42615;DHT22;28754;47.700;7.924;2022-12-07T06:41:12;2.00;99.90
42615;DHT22;28754;47.700;7.924;2022-12-07T06:43:59;2.00;99.90
42615;DHT22;28754;47.700;7.924;2022-12-07T06:46:46;2.10;99.90
42615;DHT22;28754;47.700;7.924;2022-12-07T06:49:32;2.00;99.90
42615;DHT22;28754;47.700;7.924;2022-12-07T06:52:19;2.10;99.90
42615;DHT22;28754;47.700;7.924;2022-12-07T06:55:06;2.20;99.90
42615;DHT22;28754;47.700;7.924;2022-12-07T06:57:53;2.20;99.90
42615;DHT22;28754;47.700;7.924;2022-12-07T07:00:39;2.30;99.90
42615;DHT22;28754;47.700;7.924;2022-12-07T07:03:26;2.20;99.90
42615;DHT22;28754;47.700;7.924;2022-12-07T07:06:14;2.30;99.90
42615;DHT22;28754;47.700;7.924;2022-12-07T07:09:01;2.30;99.90
42615;DHT22;28754;47.700;7.924;2022-12-07T07:11:48;2.30;99.90
42615;DHT22;28754;47.700;7.924;2022-12-07T07:14:34;2.20;99.90
42615;DHT22;28754;47.700;7.924;2022-12-07T07:17:22;2.10;99.90
42615;DHT22;28754;47.700;7.924;2022-12-07T07:20:09;2.10;99.90
42615;DHT22;28754;47.700;7.924;2022-12-07T07:22:56;2.00;99.90
42615;DHT22;28754;47.700;7.924;2022-12-07T07:25:44;2.00;99.90
42615;DHT22;28754;47.700;7.924;2022-12-07T07:28:31;2.20;99.90
42615;DHT22;28754;47.700;7.924;2022-12-07T07:31:17;2.20;99.90
42615;DHT22;28754;47.700;7.924;2022-12-07T07:34:04;2.10;99.90
42615;DHT22;28754;47.700;7.924;2022-12-07T07:36:51;2.10;99.90
42615;DHT22;28754;47.700;7.924;2022-12-07T07:39:38;2.10;99.90
42615;DHT22;28754;47.700;7.924;2022-12-07T07:42:24;2.10;99.90
42615;DHT22;28754;47.700;7.924;2022-12-07T07:45:11;2.10;99.90
42615;DHT22;28754;47.700;7.924;2022-12-07T07:47:58;2.00;99.90
42615;DHT22;28754;47.700;7.924;2022-12-07T07:50:44;2.10;99.90
42615;DHT22;28754;47.700;7.924;2022-12-07T07:53:31;2.10;99.90
42615;DHT22;28754;47.700;7.924;2022-12-07T07:56:18;2.10;99.90
42615;DHT22;28754;47.700;7.924;2022-12-07T07:59:04;2.10;99.90
42615;DHT22;28754;47.700;7.924;2022-12-07T08:01:51;2.10;99.90
42615;DHT22;28754;47.700;7.924;2022-12-07T08:04:38;2.10;99.90
42615;DHT22;28754;47.700;7.924;2022-12-07T08:07:24;2.40;99.90
42615;DHT22;28754;47.700;7.924;2022-12-07T08:10:12;2.50;99.90
42615;DHT22;28754;47.700;7.924;2022-12-07T08:12:59;2.50;99.90
42615;DHT22;28754;47.700;7.924;2022-12-07T08:16:07;2.60;99.90
42615;DHT22;28754;47.700;7.924;2022-12-07T08:18:55;2.70;99.90
42615;DHT22;28754;47.700;7.924;2022-12-07T08:21:42;2.80;99.90
42615;DHT22;28754;47.700;7.924;2022-12-07T08:24:29;2.90;99.90
42615;DHT22;28754;47.700;7.924;2022-12-07T08:27:15;2.90;99.90
42615;DHT22;28754;47.700;7.924;2022-12-07T08:30:02;2.80;99.90
42615;DHT22;28754;47.700;7.924;2022-12-07T08:32:49;3.00;99.90
42615;DHT22;28754;47.700;7.924;2022-12-07T08:35:36;3.10;99.90
42615;DHT22;28754;47.700;7.924;2022-12-07T08:38:23;3.60;99.90
42615;DHT22;28754;47.700;7.924;2022-12-07T08:41:10;4.80;99.90
42615;DHT22;28754;47.700;7.924;2022-12-07T08:43:56;4.90;99.90
42615;DHT22;28754;47.700;7.924;2022-12-07T08:47:08;4.70;99.90
42615;DHT22;28754;47.700;7.924;2022-12-07T08:49:54;7.40;99.90
42615;DHT22;28754;47.700;7.924;2022-12-07T08:52:41;6.60;99.90
42615;DHT22;28754;47.700;7.924;2022-12-07T08:55:29;8.10;99.90
42615;DHT22;28754;47.700;7.924;2022-12-07T08:58:16;12.40;99.90
42615;DHT22;28754;47.700;7.924;2022-12-07T09:01:03;15.50;99.90
42615;DHT22;28754;47.700;7.924;2022-12-07T09:03:50;12.60;99.90
42615;DHT22;28754;47.700;7.924;2022-12-07T09:06:38;12.80;99.90
42615;DHT22;28754;47.700;7.924;2022-12-07T09:09:25;15.60;99.90
42615;DHT22;28754;47.700;7.924;2022-12-07T09:12:11;16.70;99.90
42615;DHT22;28754;47.700;7.924;2022-12-07T09:14:58;20.10;99.90
42615;DHT22;28754;47.700;7.924;2022-12-07T09:17:46;19.70;99.90
42615;DHT22;28754;47.700;7.924;2022-12-07T09:20:33;17.50;99.90
42615;DHT22;28754;47.700;7.924;2022-12-07T09:23:20;16.20;99.90
42615;DHT22;28754;47.700;7.924;2022-12-07T09:26:06;15.80;99.90
42615;DHT22;28754;47.700;7.924;2022-12-07T09:28:53;16.50;99.90
42615;DHT22;28754;47.700;7.924;2022-12-07T09:31:40;18.00;99.90
42615;DHT22;28754;47.700;7.924;2022-12-07T09:34:27;18.00;99.90
42615;DHT22;28754;47.700;7.924;2022-12-07T09:37:17;18.10;99.90
42615;DHT22;28754;47.700;7.924;2022-12-07T09:40:04;19.00;99.90
42615;DHT22;28754;47.700;7.924;2022-12-07T09:42:53;20.50;99.90
42615;DHT22;28754;47.700;7.924;2022-12-07T09:45:42;20.40;99.90
42615;DHT22;28754;47.700;7.924;2022-12-07T09:48:33;21.40;99.90
42615;DHT22;28754;47.700;7.924;2022-12-07T09:51:24;22.70;99.90
42615;DHT22;28754;47.700;7.924;2022-12-07T09:54:16;21.40;99.90
42615;DHT22;28754;47.700;7.924;2022-12-07T09:57:03;18.90;99.90
42615;DHT22;28754;47.700;7.924;2022-12-07T09:59:49;20.80;99.90
42615;DHT22;28754;47.700;7.924;2022-12-07T10:02:37;23.10;99.90
42615;DHT22;28754;47.700;7.924;2022-12-07T10:05:36;20.10;99.90
42615;DHT22;28754;47.700;7.924;2022-12-07T10:08:25;15.90;99.90
42615;DHT22;28754;47.700;7.924;2022-12-07T10:11:12;19.10;99.90
42615;DHT22;28754;47.700;7.924;2022-12-07T10:14:11;16.30;99.90
42615;DHT22;28754;47.700;7.924;2022-12-07T10:17:00;15.00;99.90
42615;DHT22;28754;47.700;7.924;2022-12-07T10:19:47;18.50;99.90
42615;DHT22;28754;47.700;7.924;2022-12-07T10:22:33;21.20;99.90
42615;DHT22;28754;47.700;7.924;2022-12-07T10:25:21;23.60;99.10
42615;DHT22;28754;47.700;7.924;2022-12-07T10:28:14;25.50;97.20
42615;DHT22;28754;47.700;7.924;2022-12-07T10:31:15;26.20;95.70
42615;DHT22;28754;47.700;7.924;2022-12-07T10:34:22;26.50;94.60
42615;DHT22;28754;47.700;7.924;2022-12-07T10:43:21;26.40;93.90
42615;DHT22;28754;47.700;7.924;2022-12-07T10:46:35;25.30;93.70
42615;DHT22;28754;47.700;7.924;2022-12-07T10:53:01;17.40;98.30
42615;DHT22;28754;47.700;7.924;2022-12-07T10:56:22;11.90;99.90
42615;DHT22;28754;47.700;7.924;2022-12-07T11:10:14;7.60;99.90
42615;DHT22;28754;47.700;7.924;2022-12-07T11:13:15;7.20;99.90
42615;DHT22;28754;47.700;7.924;2022-12-07T11:29:28;5.20;99.90
42615;DHT22;28754;47.700;7.924;2022-12-07T11:39:33;5.80;99.90
42615;DHT22;28754;47.700;7.924;2022-12-07T11:42:25;6.30;99.90
42615;DHT22;28754;47.700;7.924;2022-12-07T11:51:20;4.30;99.90
42615;DHT22;28754;47.700;7.924;2022-12-07T11:54:16;4.50;99.90
42615;DHT22;28754;47.700;7.924;2022-12-07T11:57:31;4.80;99.90
42615;DHT22;28754;47.700;7.924;2022-12-07T12:00:23;5.00;99.90
42615;DHT22;28754;47.700;7.924;2022-12-07T12:03:18;5.00;99.90
42615;DHT22;28754;47.700;7.924;2022-12-07T12:06:16;4.80;99.90
42615;DHT22;28754;47.700;7.924;2022-12-07T12:09:15;4.80;99.90
42615;DHT22;28754;47.700;7.924;2022-12-07T12:22:17;4.90;99.90
42615;DHT22;28754;47.700;7.924;2022-12-07T12:25:12;4.70;99.90
42615;DHT22;28754;47.700;7.924;2022-12-07T12:28:29;4.40;99.90
42615;DHT22;28754;47.700;7.924;2022-12-07T12:35:03;4.80;99.90
42615;DHT22;28754;47.700;7.924;2022-12-07T12:37:41;5.00;99.90
42615;DHT22;28754;47.700;7.924;2022-12-07T12:43:47;4.60;99.90
42615;DHT22;28754;47.700;7.924;2022-12-07T12:46:36;4.70;99.90
42615;DHT22;28754;47.700;7.924;2022-12-07T13:01:38;4.60;99.90
42615;DHT22;28754;47.700;7.924;2022-12-07T13:04:36;4.80;99.90
42615;DHT22;28754;47.700;7.924;2022-12-07T13:10:42;4.70;99.90
42615;DHT22;28754;47.700;7.924;2022-12-07T13:13:32;4.80;99.90
42615;DHT22;28754;47.700;7.924;2022-12-07T13:22:39;4.60;99.90
42615;DHT22;28754;47.700;7.924;2022-12-07T13:25:36;3.90;99.90
42615;DHT22;28754;47.700;7.924;2022-12-07T13:28:40;3.50;99.90
42615;DHT22;28754;47.700;7.924;2022-12-07T13:31:34;3.30;99.90
42615;DHT22;28754;47.700;7.924;2022-12-07T13:37:29;3.30;99.90
42615;DHT22;28754;47.700;7.924;2022-12-07T13:40:20;3.20;99.90
42615;DHT22;28754;47.700;7.924;2022-12-07T13:43:14;3.30;99.90
42615;DHT22;28754;47.700;7.924;2022-12-07T13:46:08;3.40;99.90
42615;DHT22;28754;47.700;7.924;2022-12-07T13:49:22;3.60;99.90
42615;DHT22;28754;47.700;7.924;2022-12-07T13:52:15;3.60;99.90
42615;DHT22;28754;47.700;7.924;2022-12-07T13:57:54;4.20;99.90
42615;DHT22;28754;47.700;7.924;2022-12-07T14:00:42;3.90;99.90
42615;DHT22;28754;47.700;7.924;2022-12-07T14:03:34;3.80;99.90
42615;DHT22;28754;47.700;7.924;2022-12-07T14:06:26;3.80;99.90
42615;DHT22;28754;47.700;7.924;2022-12-07T14:09:19;3.50;99.90
42615;DHT22;28754;47.700;7.924;2022-12-07T14:12:08;3.40;99.90
42615;DHT22;28754;47.700;7.924;2022-12-07T14:14:55;3.40;99.90
42615;DHT22;28754;47.700;7.924;2022-12-07T14:17:54;3.30;99.90
42615;DHT22;28754;47.700;7.924;2022-12-07T14:20:41;3.20;99.90
42615;DHT22;28754;47.700;7.924;2022-12-07T14:23:28;3.30;99.90
42615;DHT22;28754;47.700;7.924;2022-12-07T14:26:19;3.20;99.90
42615;DHT22;28754;47.700;7.924;2022-12-07T14:29:31;3.30;99.90
42615;DHT22;28754;47.700;7.924;2022-12-07T14:32:25;3.40;99.90
42615;DHT22;28754;47.700;7.924;2022-12-07T14:35:17;3.10;99.90
42615;DHT22;28754;47.700;7.924;2022-12-07T14:38:04;3.10;99.90
42615;DHT22;28754;47.700;7.924;2022-12-07T14:40:53;3.00;99.90
42615;DHT22;28754;47.700;7.924;2022-12-07T14:43:41;3.00;99.90
42615;DHT22;28754;47.700;7.924;2022-12-07T14:46:27;2.90;99.90
42615;DHT22;28754;47.700;7.924;2022-12-07T14:49:14;3.00;99.90
42615;DHT22;28754;47.700;7.924;2022-12-07T14:52:01;3.00;99.90
42615;DHT22;28754;47.700;7.924;2022-12-07T14:54:48;3.30;99.90
42615;DHT22;28754;47.700;7.924;2022-12-07T14:57:35;3.10;99.90
42615;DHT22;28754;47.700;7.924;2022-12-07T15:00:26;3.10;99.90
42615;DHT22;28754;47.700;7.924;2022-12-07T15:03:14;3.30;99.90
42615;DHT22;28754;47.700;7.924;2022-12-07T15:06:01;3.60;99.90
42615;DHT22;28754;47.700;7.924;2022-12-07T15:08:48;3.80;99.90
42615;DHT22;28754;47.700;7.924;2022-12-07T15:11:34;3.80;99.90
42615;DHT22;28754;47.700;7.924;2022-12-07T15:14:21;3.80;99.90
42615;DHT22;28754;47.700;7.924;2022-12-07T15:17:11;3.70;99.90
42615;DHT22;28754;47.700;7.924;2022-12-07T15:19:58;3.70;99.90
42615;DHT22;28754;47.700;7.924;2022-12-07T15:22:45;3.70;99.90
42615;DHT22;28754;47.700;7.924;2022-12-07T15:25:32;3.50;99.90
42615;DHT22;28754;47.700;7.924;2022-12-07T15:28:19;3.60;99.90
42615;DHT22;28754;47.700;7.924;2022-12-07T15:31:13;3.70;99.90
42615;DHT22;28754;47.700;7.924;2022-12-07T15:34:02;3.70;99.90
42615;DHT22;28754;47.700;7.924;2022-12-07T15:36:49;3.70;99.90
42615;DHT22;28754;47.700;7.924;2022-12-07T15:39:37;4.00;99.90
42615;DHT22;28754;47.700;7.924;2022-12-07T15:42:23;3.80;99.90
42615;DHT22;28754;47.700;7.924;2022-12-07T15:45:11;3.80;99.90
42615;DHT22;28754;47.700;7.924;2022-12-07T15:48:00;3.80;99.90
42615;DHT22;28754;47.700;7.924;2022-12-07T15:50:46;4.00;99.90
42615;DHT22;28754;47.700;7.924;2022-12-07T15:53:34;3.80;99.90
42615;DHT22;28754;47.700;7.924;2022-12-07T15:56:21;3.70;99.90
42615;DHT22;28754;47.700;7.924;2022-12-07T15:59:07;3.60;99.90
42615;DHT22;28754;47.700;7.924;2022-12-07T16:01:54;3.50;99.90
42615;DHT22;28754;47.700;7.924;2022-12-07T16:04:41;3.30;99.90
42615;DHT22;28754;47.700;7.924;2022-12-07T16:07:28;3.30;99.90
42615;DHT22;28754;47.700;7.924;2022-12-07T16:10:16;3.20;99.90
42615;DHT22;28754;47.700;7.924;2022-12-07T16:13:03;2.80;99.90
42615;DHT22;28754;47.700;7.924;2022-12-07T16:15:49;2.90;99.90
42615;DHT22;28754;47.700;7.924;2022-12-07T16:18:36;2.80;99.90
42615;DHT22;28754;47.700;7.924;2022-12-07T16:21:23;2.90;99.90
42615;DHT22;28754;47.700;7.924;2022-12-07T16:24:10;3.20;99.90
42615;DHT22;28754;47.700;7.924;2022-12-07T16:26:58;3.50;99.90
42615;DHT22;28754;47.700;7.924;2022-12-07T16:29:45;3.60;99.90
42615;DHT22;28754;47.700;7.924;2022-12-07T16:32:32;3.40;99.90
42615;DHT22;28754;47.700;7.924;2022-12-07T16:35:19;3.40;99.90
42615;DHT22;28754;47.700;7.924;2022-12-07T16:38:06;3.10;99.90
42615;DHT22;28754;47.700;7.924;2022-12-07T16:40:53;2.90;99.90
42615;DHT22;28754;47.700;7.924;2022-12-07T16:43:40;3.00;99.90
42615;DHT22;28754;47.700;7.924;2022-12-07T16:46:27;3.20;99.90
42615;DHT22;28754;47.700;7.924;2022-12-07T16:49:14;3.40;99.90
42615;DHT22;28754;47.700;7.924;2022-12-07T16:52:02;3.50;99.90
42615;DHT22;28754;47.700;7.924;2022-12-07T16:54:49;3.50;99.90
42615;DHT22;28754;47.700;7.924;2022-12-07T16:57:36;3.60;99.90
42615;DHT22;28754;47.700;7.924;2022-12-07T17:00:23;3.60;99.90
42615;DHT22;28754;47.700;7.924;2022-12-07T17:03:10;3.50;99.90
42615;DHT22;28754;47.700;7.924;2022-12-07T17:05:57;3.50;99.90
42615;DHT22;28754;47.700;7.924;2022-12-07T17:08:44;3.40;99.90
42615;DHT22;28754;47.700;7.924;2022-12-07T17:11:32;3.40;99.90
42615;DHT22;28754;47.700;7.924;2022-12-07T17:14:18;3.60;99.90
42615;DHT22;28754;47.700;7.924;2022-12-07T17:17:23;3.70;99.90
42615;DHT22;28754;47.700;7.924;2022-12-07T17:20:15;3.60;99.90
42615;DHT22;28754;47.700;7.924;2022-12-07T17:23:05;3.50;99.90
42615;DHT22;28754;47.700;7.924;2022-12-07T17:25:52;3.60;99.90
42615;DHT22;28754;47.700;7.924;2022-12-07T17:28:41;3.60;99.90
42615;DHT22;28754;47.700;7.924;2022-12-07T17:31:28;3.70;99.90
42615;DHT22;28754;47.700;7.924;2022-12-07T17:34:15;3.70;99.90
42615;DHT22;28754;47.700;7.924;2022-12-07T17:37:02;3.60;99.90
42615;DHT22;28754;47.700;7.924;2022-12-07T17:39:50;3.60;99.90
42615;DHT22;28754;47.700;7.924;2022-12-07T17:42:38;3.70;99.90
42615;DHT22;28754;47.700;7.924;2022-12-07T17:45:33;3.60;99.90
42615;DHT22;28754;47.700;7.924;2022-12-07T17:48:20;3.50;99.90
42615;DHT22;28754;47.700;7.924;2022-12-07T17:51:06;3.30;99.90
42615;DHT22;28754;47.700;7.924;2022-12-07T17:54:12;3.20;99.90
42615;DHT22;28754;47.700;7.924;2022-12-07T17:57:02;3.20;99.90
42615;DHT22;28754;47.700;7.924;2022-12-07T17:59:49;3.10;99.90
42615;DHT22;28754;47.700;7.924;2022-12-07T18:02:38;3.10;99.90
42615;DHT22;28754;47.700;7.924;2022-12-07T18:05:24;3.10;99.90
42615;DHT22;28754;47.700;7.924;2022-12-07T18:08:11;2.90;99.90
42615;DHT22;28754;47.700;7.924;2022-12-07T18:10:58;2.80;99.90
42615;DHT22;28754;47.700;7.924;2022-12-07T18:13:49;2.70;99.90
42615;DHT22;28754;47.700;7.924;2022-12-07T18:16:36;2.70;99.90
42615;DHT22;28754;47.700;7.924;2022-12-07T18:19:23;2.60;99.90
42615;DHT22;28754;47.700;7.924;2022-12-07T18:22:15;2.50;99.90
42615;DHT22;28754;47.700;7.924;2022-12-07T18:25:10;2.40;99.90
42615;DHT22;28754;47.700;7.924;2022-12-07T18:28:00;2.30;99.90
42615;DHT22;28754;47.700;7.924;2022-12-07T18:30:46;2.20;99.90
42615;DHT22;28754;47.700;7.924;2022-12-07T18:33:40;2.00;99.90
42615;DHT22;28754;47.700;7.924;2022-12-07T18:36:31;1.90;99.90
42615;DHT22;28754;47.700;7.924;2022-12-07T18:39:18;1.90;99.90
42615;DHT22;28754;47.700;7.924;2022-12-07T18:42:05;1.80;99.90
42615;DHT22;28754;47.700;7.924;2022-12-07T18:44:52;1.80;99.90
42615;DHT22;28754;47.700;7.924;2022-12-07T18:47:39;1.90;99.90
42615;DHT22;28754;47.700;7.924;2022-12-07T18:50:25;1.90;99.90
42615;DHT22;28754;47.700;7.924;2022-12-07T18:53:13;1.80;99.90
42615;DHT22;28754;47.700;7.924;2022-12-07T18:56:12;1.80;99.90
42615;DHT22;28754;47.700;7.924;2022-12-07T18:59:02;1.70;99.90
42615;DHT22;28754;47.700;7.924;2022-12-07T19:02:09;1.60;99.90
42615;DHT22;28754;47.700;7.924;2022-12-07T19:04:56;1.60;99.90
42615;DHT22;28754;47.700;7.924;2022-12-07T19:07:45;1.60;99.90
42615;DHT22;28754;47.700;7.924;2022-12-07T19:10:35;1.40;99.90
42615;DHT22;28754;47.700;7.924;2022-12-07T19:13:22;1.50;99.90
42615;DHT22;28754;47.700;7.924;2022-12-07T19:16:09;1.40;99.90
42615;DHT22;28754;47.700;7.924;2022-12-07T19:18:56;1.40;99.90
42615;DHT22;28754;47.700;7.924;2022-12-07T19:21:43;1.40;99.90
42615;DHT22;28754;47.700;7.924;2022-12-07T19:28:51;1.60;99.90
42615;DHT22;28754;47.700;7.924;2022-12-07T19:31:54;1.50;99.90
42615;DHT22;28754;47.700;7.924;2022-12-07T19:34:46;1.40;99.90
42615;DHT22;28754;47.700;7.924;2022-12-07T19:37:54;1.30;99.90
42615;DHT22;28754;47.700;7.924;2022-12-07T19:45:44;1.30;99.90
42615;DHT22;28754;47.700;7.924;2022-12-07T19:48:31;1.40;99.90
42615;DHT22;28754;47.700;7.924;2022-12-07T19:51:18;1.40;99.90
42615;DHT22;28754;47.700;7.924;2022-12-07T19:54:05;1.40;99.90
42615;DHT22;28754;47.700;7.924;2022-12-07T19:56:53;1.50;99.90
42615;DHT22;28754;47.700;7.924;2022-12-07T19:59:40;1.50;99.90
42615;DHT22;28754;47.700;7.924;2022-12-07T20:02:27;1.50;99.90
42615;DHT22;28754;47.700;7.924;2022-12-07T20:05:14;1.40;99.90
42615;DHT22;28754;47.700;7.924;2022-12-07T20:08:01;1.40;99.90
42615;DHT22;28754;47.700;7.924;2022-12-07T20:10:48;1.30;99.90
42615;DHT22;28754;47.700;7.924;2022-12-07T20:13:36;1.30;99.90
42615;DHT22;28754;47.700;7.924;2022-12-07T20:16:23;1.30;99.90
42615;DHT22;28754;47.700;7.924;2022-12-07T20:19:12;1.30;99.90